Jump to content

shaeone

Miembros
  • Content Count

    1077
  • Joined

  • Last visited

About shaeone

  • Rank
    Teniente E69
  • Birthday 12/20/1990

Profile Information

  • Gender
    Male
  • Location
    Ferrol

Otros campos

  • Controles
    Hotas Warthog
  • Procedencia
    Galicia
  • Escarapela
    España

Recent Profile Visitors

6130 profile views
  1. ¡Mira mamá! ¡Salgo en la foto!
  2. Si hace arcos DME e intercepta bien los radiales con el AP ya os podéis dar con un cantos en los dientes.
  3. Yo dejo esto aquí y me voy mientras me río sigilosamente
  4. Buenas señores, si tenéis algún problema con las claves mandad un correo al departamento de miembros o pilladme en cualquier momento que me veáis por el TS, que yo os echo una mano
  5. Ayer me quedé con mono tras un viaje lleno de incidencias en cabina compartida con Templar. Hacía tiempo que no volaba y estaba un poco pez y encima se juntaron diversos fallos técnicos por ambas partes que llevaron a que disfrutáramos únicamente de la primera mitad del vuelo. Así que hoy volví a hacer el vuelo en solitario con el más pequeño de los Airbus. La meteo no pintaba demasiado mal tanto en salida como en llegada: EHAM 290955Z 23013KT 200V280 9999 FEW018CB SCT022 21/16 Q1010 NOSIG EGLC 290950Z 25010KT 9999 SCT015 BKN020 20/15 Q1011 Nuestra ruta parecía un "directo
  6. Pues yo no lo conocía, pero tiene buena pinta, especialmente la sección del perfil de alturas. ¡Gracias! Un saludo,
  7. Dos fotitos del vuelo de hace un ratito con Air Excellence: Saliendo de Barcelona, rumbo a Palma. Desdenciendo y virando sobre TOLSO.
  8. Un par de fotos de esta tarde, volando hacia Santiago de Compostela. La meteo estuvo hoy interesante. Y otras dos de ahora mismo, Templar despegando y yo rodando a pista.
  9. Ya hacía tiempo que no subía fotos al post, así que os dejo unas de un vuelo de esta tarde, entre Tenerife Norte y Gibraltar. Tras el viraje, nos quedaban algo menos de un par de horas de agua: Aquí ya estamos descendiendo, igual que el sol. Marruecos nos queda a la derecha y se intuye ya la entrada al estrecho. Navegando sobre el estrecho, la oscuridad y la bruma apenas dejan vislumbrar las montañas del territorio español. Gibraltar todavía no se ve. Y aquí en final, rezando para que Vicente librara rápido y que no nos tocara frustrar.
×
×
  • Create New...

Important Information

Some pretty cookies are used in this website